createdAt,value
2023-03-31T00:00:36.918Z,6.77
2023-03-31T00:03:10.386Z,5.03
2023-03-31T00:05:38.450Z,7.17
2023-03-31T00:08:07.256Z,2.97
2023-03-31T00:10:35.758Z,3.60
2023-03-31T00:13:04.889Z,3.77
2023-03-31T00:15:32.729Z,4.57
2023-03-31T00:18:00.847Z,5.07
2023-03-31T00:20:29.052Z,4.10
2023-03-31T00:22:57.624Z,3.93
2023-03-31T00:25:27.854Z,3.50
2023-03-31T00:27:55.780Z,7.30
2023-03-31T00:30:25.251Z,5.87
2023-03-31T00:32:53.329Z,5.63
2023-03-31T00:35:23.672Z,4.20
2023-03-31T00:37:51.410Z,4.43
2023-03-31T00:40:19.190Z,4.43
2023-03-31T00:42:48.195Z,6.83
2023-03-31T00:45:29.533Z,5.83
2023-03-31T00:48:04.304Z,10.63
2023-03-31T00:50:36.554Z,4.30
2023-03-31T00:53:09.659Z,4.00
2023-03-31T00:55:43.145Z,6.53
2023-03-31T00:58:15.227Z,4.27
2023-03-31T01:00:44.514Z,4.87
2023-03-31T01:03:12.387Z,4.83
2023-03-31T01:05:45.927Z,7.63
2023-03-31T01:08:15.903Z,3.10
2023-03-31T01:10:49.412Z,6.77
2023-03-31T01:13:19.801Z,4.27
2023-03-31T01:15:49.915Z,4.90
2023-03-31T01:18:21.216Z,6.63
2023-03-31T01:21:19.024Z,4.23
2023-03-31T01:24:16.683Z,4.70
2023-03-31T01:26:57.481Z,3.73
2023-03-31T01:29:44.069Z,4.00
2023-03-31T01:32:43.510Z,6.00
2023-03-31T01:35:33.805Z,5.83
2023-03-31T01:38:25.640Z,6.47
2023-03-31T01:41:09.381Z,7.83
2023-03-31T01:43:45.931Z,4.93
2023-03-31T01:46:22.430Z,7.07
2023-03-31T01:48:59.223Z,6.00
2023-03-31T01:51:34.761Z,5.97
2023-03-31T01:54:10.898Z,4.67
2023-03-31T01:56:45.238Z,4.53
2023-03-31T01:59:17.698Z,5.00
2023-03-31T02:01:52.371Z,8.37
2023-03-31T02:04:24.430Z,5.63
2023-03-31T02:06:57.212Z,7.73
2023-03-31T02:09:28.648Z,6.00
2023-03-31T02:12:00.473Z,4.00
2023-03-31T02:14:32.321Z,8.00
2023-03-31T02:17:03.910Z,4.80
2023-03-31T02:19:35.365Z,6.03
2023-03-31T02:22:05.777Z,4.00
2023-03-31T02:24:35.360Z,8.47
2023-03-31T02:27:10.226Z,4.63
2023-03-31T02:29:38.248Z,4.87
2023-03-31T02:32:12.576Z,6.60
2023-03-31T02:34:40.711Z,5.30
2023-03-31T02:37:08.733Z,6.70
2023-03-31T02:39:39.642Z,5.43
2023-03-31T02:42:09.299Z,5.87
2023-03-31T02:44:38.317Z,7.13
2023-03-31T02:47:09.556Z,8.87
2023-03-31T02:49:39.959Z,5.73
2023-03-31T02:52:37.815Z,7.13
2023-03-31T02:55:17.648Z,6.40
2023-03-31T02:58:09.896Z,7.60
2023-03-31T03:00:49.969Z,7.00
2023-03-31T03:03:30.885Z,9.93
2023-03-31T03:06:07.204Z,7.77
2023-03-31T03:09:09.027Z,12.17
2023-03-31T03:11:48.050Z,6.13
2023-03-31T03:14:28.636Z,7.03
2023-03-31T03:17:02.227Z,7.43
2023-03-31T03:19:30.238Z,7.37
2023-03-31T03:21:59.042Z,8.20
2023-03-31T03:24:29.478Z,10.73
2023-03-31T03:26:57.959Z,11.43
2023-03-31T03:29:27.185Z,10.03
2023-03-31T03:31:55.397Z,7.10
2023-03-31T03:34:23.175Z,7.63
2023-03-31T03:36:51.888Z,7.37
2023-03-31T03:39:19.684Z,7.95
2023-03-31T03:41:47.856Z,10.57
2023-03-31T03:44:15.844Z,7.90
2023-03-31T03:46:45.002Z,11.17
2023-03-31T03:49:12.929Z,7.70
2023-03-31T03:54:23.136Z,9.03
2023-03-31T03:56:51.135Z,7.77
2023-03-31T03:59:19.139Z,13.40
2023-03-31T04:01:48.578Z,10.33
2023-03-31T04:04:16.928Z,10.77
2023-03-31T04:06:44.759Z,5.80
2023-03-31T04:09:12.547Z,8.33
2023-03-31T04:11:40.326Z,9.13
2023-03-31T04:14:08.093Z,8.43
2023-03-31T04:16:35.852Z,8.20
2023-03-31T04:19:05.271Z,7.97
2023-03-31T04:21:34.934Z,5.43
2023-03-31T04:24:04.708Z,9.17
2023-03-31T04:26:45.111Z,10.43
2023-03-31T04:29:14.209Z,8.03
2023-03-31T04:31:43.611Z,7.13
2023-03-31T04:34:14.889Z,8.13
2023-03-31T04:36:47.163Z,8.40
2023-03-31T04:39:16.386Z,9.13
2023-03-31T04:41:44.234Z,8.10
2023-03-31T04:44:11.916Z,11.70
2023-03-31T04:46:39.642Z,9.93
2023-03-31T04:49:07.407Z,9.40
2023-03-31T04:51:36.406Z,12.63
2023-03-31T04:54:04.238Z,10.40
2023-03-31T04:56:31.956Z,9.43
2023-03-31T04:58:59.720Z,8.00
2023-03-31T05:01:27.435Z,7.13
2023-03-31T05:03:55.186Z,5.87
2023-03-31T05:06:23.178Z,7.73
2023-03-31T05:08:52.279Z,6.25
2023-03-31T05:11:20.029Z,9.27
2023-03-31T05:13:47.817Z,7.30
2023-03-31T05:16:16.324Z,3.73
2023-03-31T05:18:44.148Z,7.63
2023-03-31T05:21:12.977Z,10.23
2023-03-31T05:23:40.836Z,5.97
2023-03-31T05:26:10.858Z,6.47
2023-03-31T05:28:39.181Z,7.07
2023-03-31T05:31:07.876Z,7.50
2023-03-31T05:33:40.149Z,6.90
2023-03-31T05:36:10.674Z,3.60
2023-03-31T05:38:39.070Z,2.80
2023-03-31T05:41:07.578Z,5.00
2023-03-31T05:43:36.886Z,4.97
2023-03-31T05:46:05.330Z,4.90
2023-03-31T05:48:33.401Z,2.77
2023-03-31T05:51:02.151Z,3.83
2023-03-31T05:53:30.795Z,2.63
2023-03-31T05:55:59.549Z,4.57
2023-03-31T05:58:27.717Z,3.33
2023-03-31T06:01:06.078Z,6.57
2023-03-31T06:03:34.592Z,3.27
2023-03-31T06:06:02.961Z,5.07
2023-03-31T06:08:31.122Z,2.90
2023-03-31T06:10:59.026Z,5.07
2023-03-31T06:13:26.857Z,6.13
2023-03-31T06:15:56.091Z,3.43
2023-03-31T06:18:25.755Z,4.30
2023-03-31T06:20:53.549Z,2.78
2023-03-31T06:23:21.507Z,3.40
2023-03-31T06:25:51.722Z,3.57
2023-03-31T06:28:19.997Z,2.20
2023-03-31T06:30:48.090Z,1.95
2023-03-31T06:33:16.499Z,2.75
2023-03-31T06:35:45.662Z,3.05
2023-03-31T06:38:13.492Z,1.67
2023-03-31T06:40:41.265Z,1.07
2023-03-31T06:43:09.192Z,2.20
2023-03-31T06:45:38.295Z,1.50
2023-03-31T06:48:06.954Z,3.13
2023-03-31T06:50:34.894Z,2.30
2023-03-31T06:53:04.136Z,2.53
2023-03-31T06:55:33.789Z,2.70
2023-03-31T06:58:01.679Z,0.70
2023-03-31T07:00:29.748Z,1.40
2023-03-31T07:02:57.762Z,0.90
2023-03-31T07:05:27.458Z,1.25
2023-03-31T07:07:55.318Z,1.90
2023-03-31T07:10:25.301Z,1.77
2023-03-31T07:12:53.105Z,1.08
2023-03-31T07:15:20.981Z,1.10
2023-03-31T07:17:51.187Z,0.80
2023-03-31T07:20:20.558Z,1.70
2023-03-31T07:22:49.993Z,1.30
2023-03-31T07:25:18.731Z,1.07
2023-03-31T07:27:47.882Z,1.93
2023-03-31T07:30:17.700Z,1.77
2023-03-31T07:32:47.903Z,2.22
2023-03-31T07:35:16.113Z,2.05
2023-03-31T07:37:45.704Z,1.27
2023-03-31T07:40:16.527Z,3.97
2023-03-31T07:42:49.178Z,0.70
2023-03-31T07:45:19.040Z,2.67
2023-03-31T07:47:47.355Z,0.60
2023-03-31T07:50:16.483Z,1.10
2023-03-31T07:52:46.875Z,1.40
2023-03-31T07:55:15.712Z,2.27
2023-03-31T07:57:46.102Z,1.10
2023-03-31T08:00:15.796Z,1.13
2023-03-31T08:02:45.405Z,1.17
2023-03-31T08:05:14.959Z,2.33
2023-03-31T08:07:44.656Z,3.17
2023-03-31T08:10:14.762Z,1.83
2023-03-31T08:12:42.595Z,1.30
2023-03-31T08:15:11.101Z,1.57
2023-03-31T08:17:39.645Z,2.50
2023-03-31T08:20:10.619Z,2.37
2023-03-31T08:22:39.016Z,2.45
2023-03-31T08:25:09.091Z,2.13
2023-03-31T08:27:39.339Z,1.03
2023-03-31T08:30:08.633Z,1.80
2023-03-31T08:32:36.940Z,1.53
2023-03-31T08:35:05.463Z,3.23
2023-03-31T08:37:34.820Z,2.30
2023-03-31T08:40:04.593Z,3.43
2023-03-31T08:42:38.740Z,3.30
2023-03-31T08:45:12.596Z,4.93
2023-03-31T08:47:41.634Z,5.77
2023-03-31T08:50:14.674Z,6.07
2023-03-31T08:52:48.177Z,9.27
2023-03-31T08:55:25.637Z,6.00
2023-03-31T08:57:59.972Z,4.90
2023-03-31T09:00:45.925Z,7.07
2023-03-31T09:03:20.385Z,6.13
2023-03-31T09:06:00.226Z,5.20
2023-03-31T09:08:38.227Z,7.25
2023-03-31T09:11:14.260Z,5.20
2023-03-31T09:14:23.573Z,6.33
2023-03-31T09:17:01.535Z,4.87
2023-03-31T09:19:37.269Z,3.43
2023-03-31T09:22:10.425Z,6.30
2023-03-31T09:24:48.591Z,6.63
2023-03-31T09:27:17.635Z,6.67
2023-03-31T09:29:50.081Z,7.13
2023-03-31T09:32:19.419Z,5.23
2023-03-31T09:34:49.011Z,4.13
2023-03-31T09:37:17.080Z,7.40
2023-03-31T09:39:46.417Z,9.03
2023-03-31T09:42:15.543Z,7.00
2023-03-31T09:44:47.239Z,7.77
2023-03-31T09:47:20.863Z,8.27
2023-03-31T09:49:54.085Z,4.43
2023-03-31T09:52:29.886Z,9.77
2023-03-31T09:55:01.349Z,4.97
2023-03-31T09:57:33.786Z,7.43
2023-03-31T10:00:14.651Z,4.43
2023-03-31T10:02:45.795Z,5.80
2023-03-31T10:05:27.010Z,7.63
2023-03-31T10:08:12.466Z,8.32
2023-03-31T10:10:46.894Z,5.93
2023-03-31T10:13:18.538Z,6.30
2023-03-31T10:15:46.654Z,8.60
2023-03-31T10:18:15.460Z,5.25
2023-03-31T10:20:46.447Z,5.47
2023-03-31T10:23:19.640Z,8.83
2023-03-31T10:25:50.814Z,7.43
2023-03-31T10:28:21.187Z,8.37
2023-03-31T10:30:51.162Z,8.60
2023-03-31T10:33:23.222Z,5.80
2023-03-31T10:35:56.841Z,6.28
2023-03-31T10:38:28.716Z,9.10
2023-03-31T10:41:00.187Z,5.23
2023-03-31T10:43:30.323Z,10.10
2023-03-31T10:46:01.212Z,9.60
2023-03-31T10:48:30.731Z,7.60
2023-03-31T10:51:01.737Z,9.17
2023-03-31T10:53:29.455Z,4.68
2023-03-31T10:56:18.533Z,8.05
2023-03-31T10:59:16.380Z,8.75
2023-03-31T11:02:03.207Z,8.50
2023-03-31T11:04:45.651Z,7.90
2023-03-31T11:07:27.501Z,9.97
2023-03-31T11:10:11.554Z,7.35
2023-03-31T11:12:49.773Z,8.73
2023-03-31T11:15:26.054Z,6.07
2023-03-31T11:18:17.533Z,8.53
2023-03-31T11:20:59.269Z,3.90
2023-03-31T11:23:38.731Z,1.75
2023-03-31T11:26:11.866Z,3.57
2023-03-31T11:29:02.624Z,4.10
2023-03-31T11:31:40.572Z,1.30
2023-03-31T11:34:26.734Z,3.97
2023-03-31T11:37:31.920Z,2.90
2023-03-31T11:40:14.639Z,3.70
2023-03-31T11:42:53.845Z,4.63
2023-03-31T11:45:29.491Z,3.87
2023-03-31T11:48:06.235Z,1.73
2023-03-31T11:50:39.920Z,5.90
2023-03-31T11:53:16.921Z,5.47
2023-03-31T11:55:47.604Z,4.00
2023-03-31T11:58:18.695Z,3.80
2023-03-31T12:00:52.785Z,3.80
2023-03-31T12:03:24.614Z,10.47
2023-03-31T12:05:56.664Z,10.37
2023-03-31T12:08:30.512Z,7.93
2023-03-31T12:11:03.660Z,7.30
2023-03-31T12:13:41.312Z,9.20
2023-03-31T12:16:16.155Z,9.77
2023-03-31T12:18:58.255Z,6.07
2023-03-31T12:21:28.038Z,7.10
2023-03-31T12:23:58.540Z,9.57
2023-03-31T12:26:38.651Z,10.43
2023-03-31T12:29:17.040Z,9.57
2023-03-31T12:31:47.435Z,7.13
2023-03-31T12:34:19.955Z,8.80
2023-03-31T12:37:00.727Z,8.57
2023-03-31T12:39:44.610Z,11.43
2023-03-31T12:42:40.603Z,9.73
2023-03-31T12:45:18.927Z,6.83
2023-03-31T12:48:03.961Z,7.43
2023-03-31T12:50:43.555Z,6.23
2023-03-31T12:53:21.892Z,8.97
2023-03-31T12:55:51.964Z,8.07
2023-03-31T12:58:41.974Z,7.07
2023-03-31T13:01:17.194Z,5.47
2023-03-31T13:03:50.395Z,7.47
2023-03-31T13:06:52.568Z,6.20
2023-03-31T13:09:43.611Z,7.33
2023-03-31T13:12:17.240Z,6.57
2023-03-31T13:14:50.520Z,7.43
2023-03-31T13:17:27.713Z,7.15
2023-03-31T13:19:58.554Z,7.47
2023-03-31T13:22:35.189Z,6.87
2023-03-31T13:25:42.279Z,4.20
2023-03-31T13:28:15.526Z,5.27
2023-03-31T13:30:52.109Z,5.77
2023-03-31T13:33:24.225Z,2.20
2023-03-31T13:35:58.182Z,5.40
2023-03-31T13:38:38.781Z,4.23
2023-03-31T13:41:16.334Z,5.60
2023-03-31T13:44:11.480Z,7.27
2023-03-31T13:47:05.145Z,4.60
2023-03-31T13:49:54.338Z,6.63
2023-03-31T13:52:40.490Z,7.13
2023-03-31T13:55:41.809Z,4.27
2023-03-31T13:58:38.665Z,5.17
2023-03-31T14:01:40.798Z,4.50
2023-03-31T14:04:25.978Z,5.03
2023-03-31T14:06:57.454Z,4.63
2023-03-31T14:09:31.622Z,3.97
2023-03-31T14:11:59.867Z,6.03
2023-03-31T14:14:29.675Z,3.30
2023-03-31T14:17:00.304Z,4.00
2023-03-31T14:19:49.340Z,6.13
2023-03-31T14:22:29.302Z,5.22
2023-03-31T14:25:12.515Z,6.50
2023-03-31T14:27:54.910Z,5.70
2023-03-31T14:30:34.565Z,4.18
2023-03-31T14:33:17.136Z,2.07
2023-03-31T14:35:53.112Z,3.60
2023-03-31T14:38:22.377Z,2.47
2023-03-31T14:40:56.305Z,2.43
2023-03-31T14:43:26.797Z,3.20
2023-03-31T14:45:59.434Z,4.27
2023-03-31T14:48:28.813Z,2.42
2023-03-31T14:50:59.702Z,4.03
2023-03-31T14:53:28.284Z,3.13
2023-03-31T14:56:03.469Z,5.30
2023-03-31T14:58:35.347Z,6.50
2023-03-31T15:01:06.817Z,6.03
2023-03-31T15:03:37.591Z,2.67
2023-03-31T15:06:06.539Z,4.37
2023-03-31T15:08:36.832Z,4.80
2023-03-31T15:11:12.870Z,2.27
2023-03-31T15:14:04.463Z,4.07
2023-03-31T15:16:38.795Z,3.20
2023-03-31T15:19:14.998Z,3.30
2023-03-31T15:21:43.502Z,2.77
2023-03-31T15:24:13.145Z,4.10
2023-03-31T15:26:46.790Z,5.43
2023-03-31T15:29:19.301Z,2.37
2023-03-31T15:31:48.228Z,5.10
2023-03-31T15:34:21.040Z,5.55
2023-03-31T15:36:49.277Z,5.67
2023-03-31T15:39:17.019Z,6.33
2023-03-31T15:41:49.092Z,8.53
2023-03-31T15:44:31.186Z,6.33
2023-03-31T15:47:06.931Z,5.63
2023-03-31T15:49:35.597Z,9.67
2023-03-31T15:52:03.418Z,5.60
2023-03-31T15:54:35.874Z,6.93
2023-03-31T15:57:06.940Z,6.70
2023-03-31T15:59:54.569Z,8.40
2023-03-31T16:02:26.723Z,4.63
2023-03-31T16:04:58.036Z,6.37
2023-03-31T16:07:28.538Z,5.70
2023-03-31T16:10:02.700Z,5.33
2023-03-31T16:12:36.389Z,7.03
2023-03-31T16:15:08.546Z,5.37
2023-03-31T16:17:39.734Z,4.40
2023-03-31T16:20:19.200Z,6.33
2023-03-31T16:22:50.879Z,1.87
2023-03-31T16:25:22.118Z,2.33
2023-03-31T16:27:55.014Z,2.47
2023-03-31T16:30:36.574Z,2.40
2023-03-31T16:33:07.004Z,2.40
2023-03-31T16:35:36.884Z,2.03
2023-03-31T16:38:04.993Z,3.20
2023-03-31T16:40:37.104Z,1.80
2023-03-31T16:43:11.406Z,1.57
2023-03-31T16:45:39.124Z,3.00
2023-03-31T16:48:15.641Z,3.57
2023-03-31T16:50:44.638Z,2.50
2023-03-31T16:53:13.683Z,2.73
2023-03-31T16:55:41.632Z,1.23
2023-03-31T16:58:11.303Z,2.80
2023-03-31T17:00:41.867Z,2.53
2023-03-31T17:03:11.768Z,4.30
2023-03-31T17:05:41.217Z,5.40
2023-03-31T17:08:10.180Z,7.20
2023-03-31T17:10:39.427Z,2.63
2023-03-31T17:13:08.050Z,4.50
2023-03-31T17:15:37.844Z,2.83
2023-03-31T17:18:07.279Z,2.57
2023-03-31T17:20:35.587Z,3.83
2023-03-31T17:23:04.339Z,2.67
2023-03-31T17:25:32.138Z,3.07
2023-03-31T17:28:01.365Z,3.83
2023-03-31T17:30:29.436Z,3.50
2023-03-31T17:33:01.666Z,3.20
2023-03-31T17:35:29.660Z,3.27
2023-03-31T17:37:57.615Z,4.53
2023-03-31T17:40:26.834Z,2.03
2023-03-31T17:42:55.878Z,3.90
2023-03-31T17:45:23.738Z,3.43
2023-03-31T17:47:51.692Z,2.90
2023-03-31T17:50:21.108Z,2.43
2023-03-31T17:52:49.502Z,2.43
2023-03-31T17:55:17.852Z,3.13
2023-03-31T17:57:46.240Z,6.13
2023-03-31T18:00:16.078Z,4.53
2023-03-31T18:02:44.552Z,3.80
2023-03-31T18:05:12.502Z,5.27
2023-03-31T18:07:42.338Z,3.03
2023-03-31T18:10:12.100Z,3.47
2023-03-31T18:12:39.940Z,3.53
2023-03-31T18:15:10.842Z,3.80
2023-03-31T18:17:38.958Z,2.70
2023-03-31T18:20:07.987Z,4.20
2023-03-31T18:22:38.286Z,5.67
2023-03-31T18:25:09.277Z,1.77
2023-03-31T18:27:37.366Z,3.67
2023-03-31T18:30:08.800Z,3.10
2023-03-31T18:32:37.280Z,4.97
2023-03-31T18:35:10.105Z,3.27
2023-03-31T18:37:37.808Z,4.63
2023-03-31T18:40:10.309Z,3.00
2023-03-31T18:42:38.031Z,3.13
2023-03-31T18:45:07.051Z,3.13
2023-03-31T18:47:34.772Z,2.37
2023-03-31T18:50:06.430Z,2.50
2023-03-31T18:52:35.447Z,4.70
2023-03-31T18:55:03.868Z,2.13
2023-03-31T18:57:33.066Z,1.60
2023-03-31T19:00:01.700Z,3.53
2023-03-31T19:02:29.755Z,3.00
2023-03-31T19:04:57.769Z,3.03
2023-03-31T19:07:25.545Z,5.07
2023-03-31T19:09:53.238Z,2.23
2023-03-31T19:12:22.311Z,1.87
2023-03-31T19:14:52.470Z,3.47
2023-03-31T19:17:20.896Z,4.73
2023-03-31T19:19:48.752Z,3.40
2023-03-31T19:22:16.925Z,3.17
2023-03-31T19:24:45.137Z,4.67
2023-03-31T19:27:13.524Z,3.13
2023-03-31T19:29:41.313Z,3.13
2023-03-31T19:32:10.527Z,1.80
2023-03-31T19:34:38.529Z,1.83
2023-03-31T19:37:06.610Z,3.07
2023-03-31T19:39:34.460Z,2.97
2023-03-31T19:42:03.101Z,1.67
2023-03-31T19:44:30.842Z,1.83
2023-03-31T19:46:58.827Z,4.97
2023-03-31T19:49:27.974Z,2.70
2023-03-31T19:51:55.951Z,3.33
2023-03-31T19:54:24.648Z,2.10
2023-03-31T19:56:52.592Z,2.30
2023-03-31T19:59:20.596Z,2.20
2023-03-31T20:01:48.470Z,3.80
2023-03-31T20:04:17.955Z,3.10
2023-03-31T20:06:48.366Z,3.57
2023-03-31T20:09:17.295Z,3.43
2023-03-31T20:11:45.567Z,8.23
2023-03-31T20:14:15.121Z,3.77
2023-03-31T20:16:44.536Z,2.97
2023-03-31T20:19:14.399Z,2.43
2023-03-31T20:21:42.771Z,2.40
2023-03-31T20:24:16.744Z,2.00
2023-03-31T20:26:45.380Z,3.03
2023-03-31T20:29:13.572Z,2.37
2023-03-31T20:31:41.881Z,2.30
2023-03-31T20:34:16.666Z,2.47
2023-03-31T20:36:45.781Z,3.27
2023-03-31T20:39:15.968Z,4.40
2023-03-31T20:41:44.139Z,2.37
2023-03-31T20:44:15.120Z,3.77
2023-03-31T20:46:44.870Z,3.20
2023-03-31T20:49:13.070Z,3.73
2023-03-31T20:51:42.626Z,1.90
2023-03-31T20:54:10.843Z,3.03
2023-03-31T20:56:41.549Z,4.57
2023-03-31T20:59:12.601Z,2.33
2023-03-31T21:01:42.221Z,2.40
2023-03-31T21:04:11.590Z,4.23
2023-03-31T21:06:41.765Z,3.00
2023-03-31T21:09:11.533Z,4.80
2023-03-31T21:11:41.421Z,2.70
2023-03-31T21:14:12.209Z,3.33
2023-03-31T21:16:40.139Z,5.83
2023-03-31T21:19:07.956Z,5.53
2023-03-31T21:21:36.326Z,4.67
2023-03-31T21:24:04.401Z,5.13
2023-03-31T21:26:32.303Z,3.50
2023-03-31T21:29:01.377Z,2.83
2023-03-31T21:31:29.149Z,3.60
2023-03-31T21:33:57.837Z,3.47
2023-03-31T21:36:26.770Z,2.37
2023-03-31T21:38:55.725Z,4.20
2023-03-31T21:41:25.452Z,3.53
2023-03-31T21:43:54.423Z,3.70
2023-03-31T21:46:26.458Z,2.00
2023-03-31T21:48:54.724Z,2.87
2023-03-31T21:51:23.704Z,2.50
2023-03-31T21:53:53.047Z,3.37
2023-03-31T21:56:20.972Z,2.40
2023-03-31T21:58:48.753Z,2.63
2023-03-31T22:01:16.707Z,4.20
2023-03-31T22:03:46.369Z,2.63
2023-03-31T22:06:14.104Z,2.27
2023-03-31T22:08:41.979Z,2.47
2023-03-31T22:11:12.935Z,3.07
2023-03-31T22:13:41.308Z,2.53
2023-03-31T22:16:17.160Z,1.53
2023-03-31T22:18:47.127Z,2.97
2023-03-31T22:21:22.652Z,1.80
2023-03-31T22:24:01.577Z,1.97
2023-03-31T22:26:31.039Z,1.17
2023-03-31T22:28:59.067Z,1.07
2023-03-31T22:31:27.210Z,1.80
2023-03-31T22:33:56.360Z,2.03
2023-03-31T22:36:27.189Z,2.20
2023-03-31T22:38:55.035Z,1.40
2023-03-31T22:41:23.473Z,2.30
2023-03-31T22:43:51.571Z,3.50
2023-03-31T22:46:19.456Z,2.47
2023-03-31T22:48:51.772Z,2.07
2023-03-31T22:51:21.008Z,2.53
2023-03-31T22:53:51.926Z,1.50
2023-03-31T22:56:20.131Z,1.33
2023-03-31T22:58:48.057Z,1.43
2023-03-31T23:01:17.810Z,2.70
2023-03-31T23:03:47.217Z,2.60
2023-03-31T23:06:21.898Z,2.50
2023-03-31T23:08:51.071Z,3.43
2023-03-31T23:11:19.542Z,1.50
2023-03-31T23:13:48.494Z,1.67
2023-03-31T23:16:18.936Z,2.87
2023-03-31T23:18:47.751Z,1.97
2023-03-31T23:21:17.035Z,2.67
2023-03-31T23:23:44.853Z,1.93
2023-03-31T23:26:15.802Z,1.77
2023-03-31T23:28:45.411Z,1.90
2023-03-31T23:31:13.363Z,2.87
2023-03-31T23:33:41.396Z,1.50
2023-03-31T23:36:10.461Z,2.07
2023-03-31T23:38:38.219Z,2.30
2023-03-31T23:41:06.030Z,1.63
2023-03-31T23:43:35.377Z,1.03
2023-03-31T23:46:04.851Z,0.50
2023-03-31T23:48:32.632Z,0.90
2023-03-31T23:51:00.547Z,1.00
2023-03-31T23:53:28.654Z,1.53
2023-03-31T23:55:57.832Z,0.87
2023-03-31T23:58:26.640Z,0.77
